sensor_id;sensor_type;location;lat;lon;timestamp;temperature;humidity
963;DHT22;469;48.770;9.176;2023-02-12T00:01:36;7.00;1.00
963;DHT22;469;48.770;9.176;2023-02-12T00:04:03;7.10;1.00
963;DHT22;469;48.770;9.176;2023-02-12T00:06:30;7.00;1.00
963;DHT22;469;48.770;9.176;2023-02-12T00:08:58;7.10;1.00
963;DHT22;469;48.770;9.176;2023-02-12T00:11:26;7.10;1.00
963;DHT22;469;48.770;9.176;2023-02-12T00:13:56;7.10;1.00
963;DHT22;469;48.770;9.176;2023-02-12T00:21:29;7.10;1.00
963;DHT22;469;48.770;9.176;2023-02-12T00:27:31;7.00;1.00
963;DHT22;469;48.770;9.176;2023-02-12T00:30:12;7.00;1.00
963;DHT22;469;48.770;9.176;2023-02-12T00:32:48;7.00;1.00
963;DHT22;469;48.770;9.176;2023-02-12T00:38:12;7.00;1.00
963;DHT22;469;48.770;9.176;2023-02-12T00:41:05;7.00;1.00
963;DHT22;469;48.770;9.176;2023-02-12T00:43:33;7.00;1.00
963;DHT22;469;48.770;9.176;2023-02-12T00:46:18;7.00;1.00
963;DHT22;469;48.770;9.176;2023-02-12T00:48:48;7.00;1.00
963;DHT22;469;48.770;9.176;2023-02-12T00:51:17;7.00;1.00
963;DHT22;469;48.770;9.176;2023-02-12T00:53:44;7.00;1.00
963;DHT22;469;48.770;9.176;2023-02-12T00:56:11;6.90;1.00
963;DHT22;469;48.770;9.176;2023-02-12T00:58:40;6.90;1.00
963;DHT22;469;48.770;9.176;2023-02-12T01:01:07;6.90;1.00
963;DHT22;469;48.770;9.176;2023-02-12T01:03:40;6.80;1.00
963;DHT22;469;48.770;9.176;2023-02-12T01:06:08;6.90;1.00
963;DHT22;469;48.770;9.176;2023-02-12T01:08:35;6.90;1.00
963;DHT22;469;48.770;9.176;2023-02-12T01:11:05;6.80;1.00
963;DHT22;469;48.770;9.176;2023-02-12T01:13:32;6.80;1.00
963;DHT22;469;48.770;9.176;2023-02-12T01:16:05;6.80;1.00
963;DHT22;469;48.770;9.176;2023-02-12T01:18:41;6.80;1.00
963;DHT22;469;48.770;9.176;2023-02-12T01:21:12;6.70;1.00
963;DHT22;469;48.770;9.176;2023-02-12T01:23:42;6.70;1.00
963;DHT22;469;48.770;9.176;2023-02-12T01:26:09;6.70;1.00
963;DHT22;469;48.770;9.176;2023-02-12T01:28:36;6.70;1.00
963;DHT22;469;48.770;9.176;2023-02-12T01:31:07;6.60;1.00
963;DHT22;469;48.770;9.176;2023-02-12T01:33:34;6.60;1.00
963;DHT22;469;48.770;9.176;2023-02-12T01:36:03;6.60;1.00
963;DHT22;469;48.770;9.176;2023-02-12T01:38:30;6.60;1.00
963;DHT22;469;48.770;9.176;2023-02-12T01:41:07;6.60;1.00
963;DHT22;469;48.770;9.176;2023-02-12T01:43:35;6.60;1.00
963;DHT22;469;48.770;9.176;2023-02-12T01:46:02;6.70;1.00
963;DHT22;469;48.770;9.176;2023-02-12T01:48:31;6.70;1.00
963;DHT22;469;48.770;9.176;2023-02-12T01:51:02;6.70;1.00
963;DHT22;469;48.770;9.176;2023-02-12T01:53:33;6.70;1.00
963;DHT22;469;48.770;9.176;2023-02-12T01:56:01;6.70;1.00
963;DHT22;469;48.770;9.176;2023-02-12T01:58:34;6.70;1.00
963;DHT22;469;48.770;9.176;2023-02-12T02:01:07;6.70;1.00
963;DHT22;469;48.770;9.176;2023-02-12T02:03:37;6.70;1.00
963;DHT22;469;48.770;9.176;2023-02-12T02:06:10;6.60;1.00
963;DHT22;469;48.770;9.176;2023-02-12T02:08:37;6.60;1.00
963;DHT22;469;48.770;9.176;2023-02-12T02:11:04;6.70;1.00
963;DHT22;469;48.770;9.176;2023-02-12T02:13:51;6.60;1.00
963;DHT22;469;48.770;9.176;2023-02-12T02:16:36;6.60;1.00
963;DHT22;469;48.770;9.176;2023-02-12T02:19:13;6.60;1.00
963;DHT22;469;48.770;9.176;2023-02-12T02:22:07;6.70;1.00
963;DHT22;469;48.770;9.176;2023-02-12T02:25:33;6.70;1.00
963;DHT22;469;48.770;9.176;2023-02-12T02:28:10;6.70;1.00
963;DHT22;469;48.770;9.176;2023-02-12T02:30:42;6.70;1.00
963;DHT22;469;48.770;9.176;2023-02-12T02:33:21;6.70;1.00
963;DHT22;469;48.770;9.176;2023-02-12T02:35:54;6.70;1.00
963;DHT22;469;48.770;9.176;2023-02-12T02:38:30;6.70;1.00
963;DHT22;469;48.770;9.176;2023-02-12T02:41:03;6.70;1.00
963;DHT22;469;48.770;9.176;2023-02-12T02:43:34;6.80;1.00
963;DHT22;469;48.770;9.176;2023-02-12T02:46:05;6.70;1.00
963;DHT22;469;48.770;9.176;2023-02-12T02:48:35;6.60;1.00
963;DHT22;469;48.770;9.176;2023-02-12T02:51:05;6.60;1.00
963;DHT22;469;48.770;9.176;2023-02-12T02:53:37;6.60;1.00
963;DHT22;469;48.770;9.176;2023-02-12T02:56:06;6.70;1.00
963;DHT22;469;48.770;9.176;2023-02-12T02:58:37;6.70;1.00
963;DHT22;469;48.770;9.176;2023-02-12T03:01:09;6.80;1.00
963;DHT22;469;48.770;9.176;2023-02-12T03:03:40;6.80;1.00
963;DHT22;469;48.770;9.176;2023-02-12T03:06:11;6.80;1.00
963;DHT22;469;48.770;9.176;2023-02-12T03:08:41;6.90;1.00
963;DHT22;469;48.770;9.176;2023-02-12T03:11:11;6.90;1.00
963;DHT22;469;48.770;9.176;2023-02-12T03:13:42;6.90;1.00
963;DHT22;469;48.770;9.176;2023-02-12T03:16:15;6.90;1.00
963;DHT22;469;48.770;9.176;2023-02-12T03:18:49;6.90;1.00
963;DHT22;469;48.770;9.176;2023-02-12T03:21:22;6.90;1.00
963;DHT22;469;48.770;9.176;2023-02-12T03:23:55;6.80;1.00
963;DHT22;469;48.770;9.176;2023-02-12T03:26:29;6.80;1.00
963;DHT22;469;48.770;9.176;2023-02-12T03:28:58;6.80;1.00
963;DHT22;469;48.770;9.176;2023-02-12T03:31:30;6.80;1.00
963;DHT22;469;48.770;9.176;2023-02-12T03:34:06;6.80;1.00
963;DHT22;469;48.770;9.176;2023-02-12T03:36:40;6.90;1.00
963;DHT22;469;48.770;9.176;2023-02-12T03:39:14;6.90;1.00
963;DHT22;469;48.770;9.176;2023-02-12T03:41:44;6.90;1.00
963;DHT22;469;48.770;9.176;2023-02-12T03:44:20;6.90;1.00
963;DHT22;469;48.770;9.176;2023-02-12T03:46:58;7.00;1.00
963;DHT22;469;48.770;9.176;2023-02-12T03:49:29;6.90;1.00
963;DHT22;469;48.770;9.176;2023-02-12T03:51:58;6.90;1.00
963;DHT22;469;48.770;9.176;2023-02-12T03:54:25;6.90;1.00
963;DHT22;469;48.770;9.176;2023-02-12T03:56:55;6.90;1.00
963;DHT22;469;48.770;9.176;2023-02-12T03:59:24;6.80;1.00
963;DHT22;469;48.770;9.176;2023-02-12T04:01:54;6.80;1.00
963;DHT22;469;48.770;9.176;2023-02-12T04:04:22;6.80;1.00
963;DHT22;469;48.770;9.176;2023-02-12T04:06:50;6.80;1.00
963;DHT22;469;48.770;9.176;2023-02-12T04:09:18;6.80;1.00
963;DHT22;469;48.770;9.176;2023-02-12T04:11:53;6.80;1.00
963;DHT22;469;48.770;9.176;2023-02-12T04:14:26;6.70;1.00
963;DHT22;469;48.770;9.176;2023-02-12T04:17:00;6.70;1.00
963;DHT22;469;48.770;9.176;2023-02-12T04:19:39;6.70;1.00
963;DHT22;469;48.770;9.176;2023-02-12T04:22:14;6.80;1.00
963;DHT22;469;48.770;9.176;2023-02-12T04:24:49;6.80;1.00
963;DHT22;469;48.770;9.176;2023-02-12T04:27:25;6.80;1.00
963;DHT22;469;48.770;9.176;2023-02-12T04:29:56;6.80;1.00
963;DHT22;469;48.770;9.176;2023-02-12T04:32:31;6.90;1.00
963;DHT22;469;48.770;9.176;2023-02-12T04:35:04;6.80;1.00
963;DHT22;469;48.770;9.176;2023-02-12T04:37:35;6.90;1.00
963;DHT22;469;48.770;9.176;2023-02-12T04:40:06;6.90;1.00
963;DHT22;469;48.770;9.176;2023-02-12T04:42:43;6.90;1.00
963;DHT22;469;48.770;9.176;2023-02-12T04:45:11;6.90;1.00
963;DHT22;469;48.770;9.176;2023-02-12T04:47:42;7.00;1.00
963;DHT22;469;48.770;9.176;2023-02-12T04:50:10;6.90;1.00
963;DHT22;469;48.770;9.176;2023-02-12T04:52:36;7.00;1.00
963;DHT22;469;48.770;9.176;2023-02-12T04:55:03;7.10;1.00
963;DHT22;469;48.770;9.176;2023-02-12T04:57:30;7.10;1.00
963;DHT22;469;48.770;9.176;2023-02-12T04:59:57;7.10;1.00
963;DHT22;469;48.770;9.176;2023-02-12T05:02:24;7.00;1.00
963;DHT22;469;48.770;9.176;2023-02-12T05:04:54;6.80;1.00
963;DHT22;469;48.770;9.176;2023-02-12T05:07:21;6.70;1.00
963;DHT22;469;48.770;9.176;2023-02-12T05:09:48;6.70;1.00
963;DHT22;469;48.770;9.176;2023-02-12T05:12:14;6.70;1.00
963;DHT22;469;48.770;9.176;2023-02-12T05:14:41;6.60;1.00
963;DHT22;469;48.770;9.176;2023-02-12T05:17:08;6.60;1.00
963;DHT22;469;48.770;9.176;2023-02-12T05:19:34;6.60;1.00
963;DHT22;469;48.770;9.176;2023-02-12T05:22:02;6.70;1.00
963;DHT22;469;48.770;9.176;2023-02-12T05:24:29;6.60;1.00
963;DHT22;469;48.770;9.176;2023-02-12T05:26:56;6.60;1.00
963;DHT22;469;48.770;9.176;2023-02-12T05:29:23;6.70;1.00
963;DHT22;469;48.770;9.176;2023-02-12T05:31:49;6.70;1.00
963;DHT22;469;48.770;9.176;2023-02-12T05:34:16;6.80;1.00
963;DHT22;469;48.770;9.176;2023-02-12T05:36:43;6.80;1.00
963;DHT22;469;48.770;9.176;2023-02-12T05:39:11;6.80;1.00
963;DHT22;469;48.770;9.176;2023-02-12T05:41:37;6.70;1.00
963;DHT22;469;48.770;9.176;2023-02-12T05:44:07;6.80;1.00
963;DHT22;469;48.770;9.176;2023-02-12T05:46:39;6.80;1.00
963;DHT22;469;48.770;9.176;2023-02-12T05:49:06;6.80;1.00
963;DHT22;469;48.770;9.176;2023-02-12T05:51:33;6.80;1.00
963;DHT22;469;48.770;9.176;2023-02-12T05:54:01;6.70;1.00
963;DHT22;469;48.770;9.176;2023-02-12T05:56:31;6.70;1.00
963;DHT22;469;48.770;9.176;2023-02-12T05:59:00;6.70;1.00
963;DHT22;469;48.770;9.176;2023-02-12T06:01:30;6.70;1.00
963;DHT22;469;48.770;9.176;2023-02-12T06:03:57;6.80;1.00
963;DHT22;469;48.770;9.176;2023-02-12T06:06:24;6.80;1.00
963;DHT22;469;48.770;9.176;2023-02-12T06:08:51;6.70;1.00
963;DHT22;469;48.770;9.176;2023-02-12T06:11:18;6.80;1.00
963;DHT22;469;48.770;9.176;2023-02-12T06:13:46;6.80;1.00
963;DHT22;469;48.770;9.176;2023-02-12T06:16:18;6.80;1.00
963;DHT22;469;48.770;9.176;2023-02-12T06:18:48;6.80;1.00
963;DHT22;469;48.770;9.176;2023-02-12T06:21:18;6.80;1.00
963;DHT22;469;48.770;9.176;2023-02-12T06:23:45;6.80;1.00
963;DHT22;469;48.770;9.176;2023-02-12T06:26:12;6.80;1.00
963;DHT22;469;48.770;9.176;2023-02-12T06:28:39;6.80;1.00
963;DHT22;469;48.770;9.176;2023-02-12T06:31:17;6.80;1.00
963;DHT22;469;48.770;9.176;2023-02-12T06:33:44;6.80;1.00
963;DHT22;469;48.770;9.176;2023-02-12T06:36:10;6.80;1.00
963;DHT22;469;48.770;9.176;2023-02-12T06:38:37;6.80;1.00
963;DHT22;469;48.770;9.176;2023-02-12T06:41:04;6.70;1.00
963;DHT22;469;48.770;9.176;2023-02-12T06:43:30;6.80;1.00
963;DHT22;469;48.770;9.176;2023-02-12T06:46:00;6.80;1.00
963;DHT22;469;48.770;9.176;2023-02-12T06:48:28;6.80;1.00
963;DHT22;469;48.770;9.176;2023-02-12T06:50:55;6.80;1.00
963;DHT22;469;48.770;9.176;2023-02-12T06:53:22;6.80;1.00
963;DHT22;469;48.770;9.176;2023-02-12T06:55:49;6.80;1.00
963;DHT22;469;48.770;9.176;2023-02-12T06:58:15;6.90;1.00
963;DHT22;469;48.770;9.176;2023-02-12T07:00:42;6.70;1.00
963;DHT22;469;48.770;9.176;2023-02-12T07:03:09;6.60;1.00
963;DHT22;469;48.770;9.176;2023-02-12T07:05:39;6.50;1.00
963;DHT22;469;48.770;9.176;2023-02-12T07:08:06;6.60;1.00
963;DHT22;469;48.770;9.176;2023-02-12T07:10:32;6.60;1.00
963;DHT22;469;48.770;9.176;2023-02-12T07:12:59;6.60;1.00
963;DHT22;469;48.770;9.176;2023-02-12T07:15:26;6.60;1.00
963;DHT22;469;48.770;9.176;2023-02-12T07:17:52;6.70;1.00
963;DHT22;469;48.770;9.176;2023-02-12T07:20:20;6.70;1.00
963;DHT22;469;48.770;9.176;2023-02-12T07:22:48;6.70;1.00
963;DHT22;469;48.770;9.176;2023-02-12T07:25:15;6.70;1.00
963;DHT22;469;48.770;9.176;2023-02-12T07:27:41;6.70;1.00
963;DHT22;469;48.770;9.176;2023-02-12T07:30:09;6.70;1.00
963;DHT22;469;48.770;9.176;2023-02-12T07:32:35;6.70;1.00
963;DHT22;469;48.770;9.176;2023-02-12T07:35:02;6.70;1.00
963;DHT22;469;48.770;9.176;2023-02-12T07:37:29;6.60;1.00
963;DHT22;469;48.770;9.176;2023-02-12T07:39:57;6.60;1.00
963;DHT22;469;48.770;9.176;2023-02-12T07:42:23;6.60;1.00
963;DHT22;469;48.770;9.176;2023-02-12T07:44:50;6.70;1.00
963;DHT22;469;48.770;9.176;2023-02-12T07:47:17;6.70;1.00
963;DHT22;469;48.770;9.176;2023-02-12T07:49:43;6.70;1.00
963;DHT22;469;48.770;9.176;2023-02-12T07:52:10;6.70;1.00
963;DHT22;469;48.770;9.176;2023-02-12T07:54:37;6.80;1.00
963;DHT22;469;48.770;9.176;2023-02-12T07:57:05;6.90;1.00
963;DHT22;469;48.770;9.176;2023-02-12T07:59:31;7.00;1.00
963;DHT22;469;48.770;9.176;2023-02-12T08:01:58;6.90;1.00
963;DHT22;469;48.770;9.176;2023-02-12T08:04:25;6.90;1.00
963;DHT22;469;48.770;9.176;2023-02-12T08:06:53;7.00;1.00
963;DHT22;469;48.770;9.176;2023-02-12T08:09:22;7.10;1.00
963;DHT22;469;48.770;9.176;2023-02-12T08:11:49;7.00;1.00
963;DHT22;469;48.770;9.176;2023-02-12T08:14:19;7.00;1.00
963;DHT22;469;48.770;9.176;2023-02-12T08:16:47;6.90;1.00
963;DHT22;469;48.770;9.176;2023-02-12T08:19:14;6.90;1.00
963;DHT22;469;48.770;9.176;2023-02-12T08:21:41;7.00;1.00
963;DHT22;469;48.770;9.176;2023-02-12T08:24:09;7.20;1.00
963;DHT22;469;48.770;9.176;2023-02-12T08:26:37;7.40;1.00
963;DHT22;469;48.770;9.176;2023-02-12T08:29:06;7.60;1.00
963;DHT22;469;48.770;9.176;2023-02-12T08:31:36;7.90;1.00
963;DHT22;469;48.770;9.176;2023-02-12T08:34:04;8.00;1.00
963;DHT22;469;48.770;9.176;2023-02-12T08:36:35;8.00;1.00
963;DHT22;469;48.770;9.176;2023-02-12T08:39:03;8.20;1.00
963;DHT22;469;48.770;9.176;2023-02-12T08:41:30;8.20;1.00
963;DHT22;469;48.770;9.176;2023-02-12T08:43:59;8.30;1.00
963;DHT22;469;48.770;9.176;2023-02-12T08:46:27;8.30;1.00
963;DHT22;469;48.770;9.176;2023-02-12T08:48:57;8.40;1.00
963;DHT22;469;48.770;9.176;2023-02-12T08:51:26;8.30;1.00
963;DHT22;469;48.770;9.176;2023-02-12T08:53:55;8.50;1.00
963;DHT22;469;48.770;9.176;2023-02-12T08:56:23;8.50;1.00
963;DHT22;469;48.770;9.176;2023-02-12T08:58:50;8.80;1.00
963;DHT22;469;48.770;9.176;2023-02-12T09:01:19;8.90;1.00
963;DHT22;469;48.770;9.176;2023-02-12T09:03:47;9.00;1.00
963;DHT22;469;48.770;9.176;2023-02-12T09:06:17;9.10;1.00
963;DHT22;469;48.770;9.176;2023-02-12T09:08:44;9.20;1.00
963;DHT22;469;48.770;9.176;2023-02-12T09:11:13;9.30;1.00
963;DHT22;469;48.770;9.176;2023-02-12T09:13:41;9.30;1.00
963;DHT22;469;48.770;9.176;2023-02-12T09:16:08;9.20;1.00
963;DHT22;469;48.770;9.176;2023-02-12T09:18:35;9.30;1.00
963;DHT22;469;48.770;9.176;2023-02-12T09:21:04;9.10;1.00
963;DHT22;469;48.770;9.176;2023-02-12T09:23:32;9.20;1.00
963;DHT22;469;48.770;9.176;2023-02-12T09:26:02;9.00;1.00
963;DHT22;469;48.770;9.176;2023-02-12T09:28:28;8.60;1.00
963;DHT22;469;48.770;9.176;2023-02-12T09:30:55;8.40;1.00
963;DHT22;469;48.770;9.176;2023-02-12T09:33:22;8.50;1.00
963;DHT22;469;48.770;9.176;2023-02-12T09:35:49;8.30;1.00
963;DHT22;469;48.770;9.176;2023-02-12T09:38:16;8.30;1.00
963;DHT22;469;48.770;9.176;2023-02-12T09:40:49;8.30;1.00
963;DHT22;469;48.770;9.176;2023-02-12T09:43:27;8.50;1.00
963;DHT22;469;48.770;9.176;2023-02-12T09:46:01;8.70;1.00
963;DHT22;469;48.770;9.176;2023-02-12T09:48:42;8.80;1.00
963;DHT22;469;48.770;9.176;2023-02-12T09:51:12;8.80;1.00
963;DHT22;469;48.770;9.176;2023-02-12T09:53:43;8.80;1.00
963;DHT22;469;48.770;9.176;2023-02-12T09:56:15;9.20;1.00
963;DHT22;469;48.770;9.176;2023-02-12T09:58:45;9.10;1.00
963;DHT22;469;48.770;9.176;2023-02-12T10:01:15;9.10;1.00
963;DHT22;469;48.770;9.176;2023-02-12T10:03:42;9.10;1.00
963;DHT22;469;48.770;9.176;2023-02-12T10:06:13;8.90;1.00
963;DHT22;469;48.770;9.176;2023-02-12T10:08:50;9.00;1.00
963;DHT22;469;48.770;9.176;2023-02-12T10:11:35;9.10;1.00
963;DHT22;469;48.770;9.176;2023-02-12T10:14:19;9.10;1.00
963;DHT22;469;48.770;9.176;2023-02-12T10:16:56;9.30;1.00
963;DHT22;469;48.770;9.176;2023-02-12T10:19:37;9.10;1.00
963;DHT22;469;48.770;9.176;2023-02-12T10:22:13;9.30;1.00
963;DHT22;469;48.770;9.176;2023-02-12T10:24:48;9.10;1.00
963;DHT22;469;48.770;9.176;2023-02-12T10:27:29;9.10;1.00
963;DHT22;469;48.770;9.176;2023-02-12T10:30:03;9.20;1.00
963;DHT22;469;48.770;9.176;2023-02-12T10:32:39;9.20;1.00
963;DHT22;469;48.770;9.176;2023-02-12T10:35:12;9.20;1.00
963;DHT22;469;48.770;9.176;2023-02-12T10:37:42;9.20;1.00
963;DHT22;469;48.770;9.176;2023-02-12T10:40:17;9.40;1.00
963;DHT22;469;48.770;9.176;2023-02-12T10:42:48;9.40;1.00
963;DHT22;469;48.770;9.176;2023-02-12T10:45:18;9.60;1.00
963;DHT22;469;48.770;9.176;2023-02-12T10:47:46;9.80;1.00
963;DHT22;469;48.770;9.176;2023-02-12T10:50:18;9.90;1.00
963;DHT22;469;48.770;9.176;2023-02-12T10:52:50;9.70;1.00
963;DHT22;469;48.770;9.176;2023-02-12T10:55:24;9.50;1.00
963;DHT22;469;48.770;9.176;2023-02-12T10:57:53;9.50;1.00
963;DHT22;469;48.770;9.176;2023-02-12T11:00:24;9.60;1.00
963;DHT22;469;48.770;9.176;2023-02-12T11:03:19;9.80;1.00
963;DHT22;469;48.770;9.176;2023-02-12T11:05:48;9.70;1.00
963;DHT22;469;48.770;9.176;2023-02-12T11:08:33;9.70;1.00
963;DHT22;469;48.770;9.176;2023-02-12T11:11:03;9.80;1.00
963;DHT22;469;48.770;9.176;2023-02-12T11:13:33;9.70;1.00
963;DHT22;469;48.770;9.176;2023-02-12T11:16:01;9.70;1.00
963;DHT22;469;48.770;9.176;2023-02-12T11:18:29;9.80;1.00
963;DHT22;469;48.770;9.176;2023-02-12T11:21:00;9.70;1.00
963;DHT22;469;48.770;9.176;2023-02-12T11:23:29;9.80;1.00
963;DHT22;469;48.770;9.176;2023-02-12T11:25:58;9.80;1.00
963;DHT22;469;48.770;9.176;2023-02-12T11:28:25;10.00;1.00
963;DHT22;469;48.770;9.176;2023-02-12T11:30:57;10.00;1.00
963;DHT22;469;48.770;9.176;2023-02-12T11:33:26;9.80;1.00
963;DHT22;469;48.770;9.176;2023-02-12T11:35:56;9.90;1.00
963;DHT22;469;48.770;9.176;2023-02-12T11:38:26;9.80;1.00
963;DHT22;469;48.770;9.176;2023-02-12T11:40:57;9.80;1.00
963;DHT22;469;48.770;9.176;2023-02-12T11:43:26;10.00;1.00
963;DHT22;469;48.770;9.176;2023-02-12T11:45:57;10.30;1.00
963;DHT22;469;48.770;9.176;2023-02-12T11:48:27;10.20;1.00
963;DHT22;469;48.770;9.176;2023-02-12T11:50:57;10.20;1.00
963;DHT22;469;48.770;9.176;2023-02-12T11:53:26;10.30;1.00
963;DHT22;469;48.770;9.176;2023-02-12T11:55:57;10.30;1.00
963;DHT22;469;48.770;9.176;2023-02-12T11:58:25;10.10;1.00
963;DHT22;469;48.770;9.176;2023-02-12T12:01:00;10.10;1.00
963;DHT22;469;48.770;9.176;2023-02-12T12:03:33;10.30;1.00
963;DHT22;469;48.770;9.176;2023-02-12T12:06:05;10.40;1.00
963;DHT22;469;48.770;9.176;2023-02-12T12:08:37;9.90;1.00
963;DHT22;469;48.770;9.176;2023-02-12T12:11:10;9.70;1.00
963;DHT22;469;48.770;9.176;2023-02-12T12:13:43;9.70;1.00
963;DHT22;469;48.770;9.176;2023-02-12T12:16:18;10.10;1.00
963;DHT22;469;48.770;9.176;2023-02-12T12:19:09;9.90;1.00
963;DHT22;469;48.770;9.176;2023-02-12T12:21:59;10.00;1.00
963;DHT22;469;48.770;9.176;2023-02-12T12:24:35;10.20;1.00
963;DHT22;469;48.770;9.176;2023-02-12T12:27:11;10.30;1.00
963;DHT22;469;48.770;9.176;2023-02-12T12:29:57;10.30;1.00
963;DHT22;469;48.770;9.176;2023-02-12T12:32:33;10.40;1.00
963;DHT22;469;48.770;9.176;2023-02-12T12:35:09;10.40;1.00
963;DHT22;469;48.770;9.176;2023-02-12T12:37:43;10.30;1.00
963;DHT22;469;48.770;9.176;2023-02-12T12:40:38;10.10;1.00
963;DHT22;469;48.770;9.176;2023-02-12T12:43:11;9.90;1.00
963;DHT22;469;48.770;9.176;2023-02-12T12:45:54;9.90;1.00
963;DHT22;469;48.770;9.176;2023-02-12T12:48:34;9.80;1.00
963;DHT22;469;48.770;9.176;2023-02-12T12:51:15;9.90;1.00
963;DHT22;469;48.770;9.176;2023-02-12T12:54:02;10.10;1.00
963;DHT22;469;48.770;9.176;2023-02-12T12:56:48;10.00;1.00
963;DHT22;469;48.770;9.176;2023-02-12T12:59:51;9.90;1.00
963;DHT22;469;48.770;9.176;2023-02-12T13:08:38;9.40;1.00
963;DHT22;469;48.770;9.176;2023-02-12T13:11:20;9.40;1.00
963;DHT22;469;48.770;9.176;2023-02-12T13:14:02;9.40;1.00
963;DHT22;469;48.770;9.176;2023-02-12T13:16:34;9.40;1.00
963;DHT22;469;48.770;9.176;2023-02-12T13:19:10;9.30;1.00
963;DHT22;469;48.770;9.176;2023-02-12T13:21:46;9.20;1.00
963;DHT22;469;48.770;9.176;2023-02-12T13:24:25;9.20;1.00
963;DHT22;469;48.770;9.176;2023-02-12T13:26:57;9.20;1.00
963;DHT22;469;48.770;9.176;2023-02-12T13:29:28;9.20;1.00
963;DHT22;469;48.770;9.176;2023-02-12T13:32:00;9.20;1.00
963;DHT22;469;48.770;9.176;2023-02-12T13:34:28;9.20;1.00
963;DHT22;469;48.770;9.176;2023-02-12T13:36:59;9.30;1.00
963;DHT22;469;48.770;9.176;2023-02-12T13:39:28;9.30;1.00
963;DHT22;469;48.770;9.176;2023-02-12T13:42:14;9.30;1.00
963;DHT22;469;48.770;9.176;2023-02-12T13:44:46;9.30;1.00
963;DHT22;469;48.770;9.176;2023-02-12T13:47:23;9.40;1.00
963;DHT22;469;48.770;9.176;2023-02-12T13:49:54;9.50;1.00
963;DHT22;469;48.770;9.176;2023-02-12T13:52:30;9.40;1.00
963;DHT22;469;48.770;9.176;2023-02-12T13:55:11;9.40;1.00
963;DHT22;469;48.770;9.176;2023-02-12T13:57:40;9.40;1.00
963;DHT22;469;48.770;9.176;2023-02-12T14:03:14;9.40;1.00
963;DHT22;469;48.770;9.176;2023-02-12T14:05:41;9.50;1.00
963;DHT22;469;48.770;9.176;2023-02-12T14:08:29;9.50;1.00
963;DHT22;469;48.770;9.176;2023-02-12T14:11:04;9.60;1.00
963;DHT22;469;48.770;9.176;2023-02-12T14:13:35;9.70;1.00
963;DHT22;469;48.770;9.176;2023-02-12T14:16:22;9.70;1.00
963;DHT22;469;48.770;9.176;2023-02-12T14:19:38;9.80;1.00
963;DHT22;469;48.770;9.176;2023-02-12T14:22:12;9.90;1.00
963;DHT22;469;48.770;9.176;2023-02-12T14:24:47;9.90;1.00
963;DHT22;469;48.770;9.176;2023-02-12T14:27:20;10.00;1.00
963;DHT22;469;48.770;9.176;2023-02-12T14:35:46;10.10;1.00
963;DHT22;469;48.770;9.176;2023-02-12T14:41:33;10.10;1.00
963;DHT22;469;48.770;9.176;2023-02-12T14:47:15;10.10;1.00
963;DHT22;469;48.770;9.176;2023-02-12T14:50:10;10.10;1.00
963;DHT22;469;48.770;9.176;2023-02-12T14:52:43;10.10;1.00
963;DHT22;469;48.770;9.176;2023-02-12T14:55:24;10.20;1.00
963;DHT22;469;48.770;9.176;2023-02-12T14:57:55;10.10;1.00
963;DHT22;469;48.770;9.176;2023-02-12T15:00:27;10.10;1.00
963;DHT22;469;48.770;9.176;2023-02-12T15:02:59;10.10;1.00
963;DHT22;469;48.770;9.176;2023-02-12T15:05:30;10.00;1.00
963;DHT22;469;48.770;9.176;2023-02-12T15:07:59;10.00;1.00
963;DHT22;469;48.770;9.176;2023-02-12T15:10:30;10.00;1.00
963;DHT22;469;48.770;9.176;2023-02-12T15:13:06;10.00;1.00
963;DHT22;469;48.770;9.176;2023-02-12T15:15:38;9.90;1.00
963;DHT22;469;48.770;9.176;2023-02-12T15:18:10;9.80;1.00
963;DHT22;469;48.770;9.176;2023-02-12T15:20:43;9.70;1.00
963;DHT22;469;48.770;9.176;2023-02-12T15:23:33;9.70;1.00
963;DHT22;469;48.770;9.176;2023-02-12T15:26:02;9.90;1.00
963;DHT22;469;48.770;9.176;2023-02-12T15:28:31;10.20;1.00
963;DHT22;469;48.770;9.176;2023-02-12T15:31:00;10.60;1.00
963;DHT22;469;48.770;9.176;2023-02-12T15:33:28;11.00;1.00
963;DHT22;469;48.770;9.176;2023-02-12T15:35:58;11.20;1.00
963;DHT22;469;48.770;9.176;2023-02-12T15:38:30;11.30;1.00
963;DHT22;469;48.770;9.176;2023-02-12T15:40:59;11.40;1.00
963;DHT22;469;48.770;9.176;2023-02-12T15:43:28;11.50;1.00
963;DHT22;469;48.770;9.176;2023-02-12T16:10:50;11.80;1.00
963;DHT22;469;48.770;9.176;2023-02-12T16:13:20;10.40;1.00
963;DHT22;469;48.770;9.176;2023-02-12T16:16:03;10.10;1.00
963;DHT22;469;48.770;9.176;2023-02-12T16:18:30;9.80;1.00
963;DHT22;469;48.770;9.176;2023-02-12T16:21:10;9.60;1.00
963;DHT22;469;48.770;9.176;2023-02-12T16:23:38;9.50;1.00
963;DHT22;469;48.770;9.176;2023-02-12T16:26:11;9.40;1.00
963;DHT22;469;48.770;9.176;2023-02-12T19:46:12;9.30;1.00
